KNUW/NUW METAR and TAF weather

Enter ICAO airport designator
Station Type Date Time Source
KNUW METAR 2019/06/26 20:56 UTC NOAA

KNUW 262056Z 26008KT 10SM FEW040 FEW080 SCT140 SCT250 19/11 A2990 RMK AO2 SLP124 T01890111 58016 $


Station Type Date Time Source
KNUW Decoded METAR 2019/06/26 20:56 UTC NOAA

NAS WHIDBEY ISLAND, WA, United States (KNUW) 48-21N 122-39W 8M
Jun 26, 2019 - 04:56 PM EDT / 2019.06.26 2056 UTC
Wind: from the W (260 degrees) at 9 MPH (8 KT):0
Visibility: 10 mile(s):0
Sky conditions: partly cloudy
Temperature: 66.0 F (18.9 C)
Dew Point: 52.0 F (11.1 C)
Relative Humidity: 60%
Pressure (altimeter): 29.9 in. Hg (1012 hPa)
Pressure tendency: 0.05 inches (1.6 hPa) lower than three hours ago
ob: KNUW 262056Z 26008KT 10SM FEW040 FEW080 SCT140 SCT250 19/11 A2990 RMK AO2 SLP124 T01890111 58016
cycle: 21

Station Type Date Time Source
KNUW TAF 2019/06/26 15:43 UTC NOAA

TAF KNUW 2615/2715 VRB06KT 9999 VCSH SCT035 BKN090 BKN150 BKN250 QNH2987INS
TEMPO 2617/2623 26008KT 9999 -SHRA BKN040 BKN100 OVC160
FM262300 27012KT 9999 VCSH FEW050CB BKN180 QNH2989INS
FM270800 23007KT 9999 VCSH SCT015 BKN035CB BKN050 OVC100 650809 QNH2992INS
TEMPO 2709/2715 24010G18KT 4800 SHRA BR BKN012 OVC050 T20/2623Z T11/2713Z FS30004

Example: see airport list